Terminal Aerodrome Forecast
Issued by NWS St Louis, MO

Home | Current Version | Previous Version | Text Only | Print | Product List | Glossary On
Versions: 1 2 3 4 5 6 7 8 9 10 11 12 13 14 15 16 17 18 19 20 21 22 23 24 25
000
FTUS43 KLSX 301300 AAA
TAFSTL
TAF AMD
KSTL 301304Z 3013/3118 VRB04KT P6SM -SHRA SCT007 BKN015 OVC070
      TEMPO 3013/3017 5SM -SHRA BR BKN007
     FM301700 36011KT 5SM -RA OVC015
     FM302100 34014KT P6SM VCSH OVC015=

USA.gov is the U.S. government's official web portal to all federal, state and local government web resources and services.